sensor_id;sensor_type;location;lat;lon;timestamp;P1;durP1;ratioP1;P2;durP2;ratioP2
3417;SDS011;1722;51.316;12.370;2022-10-31T00:01:00;9.50;;;6.43;;
3417;SDS011;1722;51.316;12.370;2022-10-31T00:03:28;16.33;;;7.40;;
3417;SDS011;1722;51.316;12.370;2022-10-31T00:05:55;17.43;;;6.83;;
3417;SDS011;1722;51.316;12.370;2022-10-31T00:08:24;15.53;;;7.43;;
3417;SDS011;1722;51.316;12.370;2022-10-31T00:10:51;19.27;;;8.03;;
3417;SDS011;1722;51.316;12.370;2022-10-31T00:13:19;14.63;;;7.17;;
3417;SDS011;1722;51.316;12.370;2022-10-31T00:15:46;14.13;;;7.57;;
3417;SDS011;1722;51.316;12.370;2022-10-31T00:18:13;13.07;;;7.20;;
3417;SDS011;1722;51.316;12.370;2022-10-31T00:20:41;14.20;;;7.17;;
3417;SDS011;1722;51.316;12.370;2022-10-31T00:23:09;23.43;;;7.90;;
3417;SDS011;1722;51.316;12.370;2022-10-31T00:25:38;13.20;;;7.60;;
3417;SDS011;1722;51.316;12.370;2022-10-31T00:28:07;13.63;;;7.00;;
3417;SDS011;1722;51.316;12.370;2022-10-31T00:30:37;16.77;;;7.20;;
3417;SDS011;1722;51.316;12.370;2022-10-31T00:33:04;14.60;;;7.20;;
3417;SDS011;1722;51.316;12.370;2022-10-31T00:35:32;13.50;;;7.10;;
3417;SDS011;1722;51.316;12.370;2022-10-31T00:37:59;12.40;;;6.40;;
3417;SDS011;1722;51.316;12.370;2022-10-31T00:40:27;17.40;;;6.27;;
3417;SDS011;1722;51.316;12.370;2022-10-31T00:42:55;9.20;;;6.17;;
3417;SDS011;1722;51.316;12.370;2022-10-31T00:45:23;13.80;;;6.30;;
3417;SDS011;1722;51.316;12.370;2022-10-31T00:47:50;16.20;;;6.40;;
3417;SDS011;1722;51.316;12.370;2022-10-31T00:50:18;15.60;;;6.13;;
3417;SDS011;1722;51.316;12.370;2022-10-31T00:52:45;16.73;;;7.13;;
3417;SDS011;1722;51.316;12.370;2022-10-31T00:55:12;12.40;;;6.07;;
3417;SDS011;1722;51.316;12.370;2022-10-31T00:57:40;12.50;;;6.37;;
3417;SDS011;1722;51.316;12.370;2022-10-31T01:00:09;14.50;;;7.13;;
3417;SDS011;1722;51.316;12.370;2022-10-31T01:02:37;11.90;;;6.60;;
3417;SDS011;1722;51.316;12.370;2022-10-31T01:05:05;16.77;;;6.50;;
3417;SDS011;1722;51.316;12.370;2022-10-31T01:07:35;11.33;;;6.70;;
3417;SDS011;1722;51.316;12.370;2022-10-31T01:10:03;13.50;;;6.23;;
3417;SDS011;1722;51.316;12.370;2022-10-31T01:12:35;12.70;;;7.20;;
3417;SDS011;1722;51.316;12.370;2022-10-31T01:15:03;15.60;;;6.50;;
3417;SDS011;1722;51.316;12.370;2022-10-31T01:17:33;10.67;;;6.40;;
3417;SDS011;1722;51.316;12.370;2022-10-31T01:20:00;17.03;;;6.23;;
3417;SDS011;1722;51.316;12.370;2022-10-31T01:22:28;17.10;;;6.67;;
3417;SDS011;1722;51.316;12.370;2022-10-31T01:24:55;17.50;;;5.90;;
3417;SDS011;1722;51.316;12.370;2022-10-31T01:27:22;12.10;;;5.50;;
3417;SDS011;1722;51.316;12.370;2022-10-31T01:29:50;15.80;;;7.40;;
3417;SDS011;1722;51.316;12.370;2022-10-31T01:32:17;15.00;;;6.53;;
3417;SDS011;1722;51.316;12.370;2022-10-31T01:34:46;13.87;;;6.33;;
3417;SDS011;1722;51.316;12.370;2022-10-31T01:37:13;17.63;;;6.73;;
3417;SDS011;1722;51.316;12.370;2022-10-31T01:39:41;15.70;;;7.07;;
3417;SDS011;1722;51.316;12.370;2022-10-31T01:42:09;12.60;;;6.93;;
3417;SDS011;1722;51.316;12.370;2022-10-31T01:44:49;15.20;;;6.67;;
3417;SDS011;1722;51.316;12.370;2022-10-31T01:47:27;13.73;;;6.43;;
3417;SDS011;1722;51.316;12.370;2022-10-31T01:50:02;15.00;;;7.40;;
3417;SDS011;1722;51.316;12.370;2022-10-31T01:52:36;13.53;;;6.40;;
3417;SDS011;1722;51.316;12.370;2022-10-31T01:55:07;13.60;;;7.33;;
3417;SDS011;1722;51.316;12.370;2022-10-31T01:57:39;14.80;;;7.03;;
3417;SDS011;1722;51.316;12.370;2022-10-31T02:00:10;20.40;;;7.03;;
3417;SDS011;1722;51.316;12.370;2022-10-31T02:02:38;16.73;;;7.70;;
3417;SDS011;1722;51.316;12.370;2022-10-31T02:05:09;15.77;;;7.53;;
3417;SDS011;1722;51.316;12.370;2022-10-31T02:07:41;13.63;;;6.60;;
3417;SDS011;1722;51.316;12.370;2022-10-31T02:10:12;13.67;;;6.33;;
3417;SDS011;1722;51.316;12.370;2022-10-31T02:12:39;14.47;;;6.27;;
3417;SDS011;1722;51.316;12.370;2022-10-31T02:15:08;13.60;;;6.40;;
3417;SDS011;1722;51.316;12.370;2022-10-31T02:17:36;12.73;;;6.40;;
3417;SDS011;1722;51.316;12.370;2022-10-31T02:20:07;11.40;;;6.47;;
3417;SDS011;1722;51.316;12.370;2022-10-31T02:22:43;19.00;;;7.23;;
3417;SDS011;1722;51.316;12.370;2022-10-31T02:25:40;19.53;;;6.63;;
3417;SDS011;1722;51.316;12.370;2022-10-31T02:28:33;13.27;;;6.57;;
3417;SDS011;1722;51.316;12.370;2022-10-31T02:31:24;13.27;;;6.27;;
3417;SDS011;1722;51.316;12.370;2022-10-31T02:33:59;11.90;;;5.77;;
3417;SDS011;1722;51.316;12.370;2022-10-31T02:36:36;19.63;;;6.63;;
3417;SDS011;1722;51.316;12.370;2022-10-31T02:39:11;11.53;;;6.10;;
3417;SDS011;1722;51.316;12.370;2022-10-31T02:41:44;15.27;;;5.90;;
3417;SDS011;1722;51.316;12.370;2022-10-31T02:44:16;13.10;;;5.53;;
3417;SDS011;1722;51.316;12.370;2022-10-31T02:46:52;12.47;;;7.20;;
3417;SDS011;1722;51.316;12.370;2022-10-31T02:49:24;15.97;;;6.97;;
3417;SDS011;1722;51.316;12.370;2022-10-31T02:51:54;12.57;;;5.87;;
3417;SDS011;1722;51.316;12.370;2022-10-31T02:54:23;11.63;;;5.90;;
3417;SDS011;1722;51.316;12.370;2022-10-31T02:56:53;12.47;;;6.10;;
3417;SDS011;1722;51.316;12.370;2022-10-31T02:59:25;18.17;;;6.60;;
3417;SDS011;1722;51.316;12.370;2022-10-31T03:02:08;14.80;;;6.47;;
3417;SDS011;1722;51.316;12.370;2022-10-31T03:04:46;11.30;;;6.10;;
3417;SDS011;1722;51.316;12.370;2022-10-31T03:07:26;16.10;;;6.20;;
3417;SDS011;1722;51.316;12.370;2022-10-31T03:10:03;10.90;;;6.20;;
3417;SDS011;1722;51.316;12.370;2022-10-31T03:12:37;8.47;;;5.43;;
3417;SDS011;1722;51.316;12.370;2022-10-31T03:15:10;21.57;;;5.97;;
3417;SDS011;1722;51.316;12.370;2022-10-31T03:17:45;12.90;;;7.50;;
3417;SDS011;1722;51.316;12.370;2022-10-31T03:20:21;16.70;;;6.50;;
3417;SDS011;1722;51.316;12.370;2022-10-31T03:22:53;19.83;;;6.70;;
3417;SDS011;1722;51.316;12.370;2022-10-31T03:25:23;12.03;;;6.80;;
3417;SDS011;1722;51.316;12.370;2022-10-31T03:27:51;15.63;;;6.50;;
3417;SDS011;1722;51.316;12.370;2022-10-31T03:30:19;12.33;;;6.20;;
3417;SDS011;1722;51.316;12.370;2022-10-31T03:32:49;26.80;;;6.23;;
3417;SDS011;1722;51.316;12.370;2022-10-31T03:35:19;14.23;;;6.60;;
3417;SDS011;1722;51.316;12.370;2022-10-31T03:37:50;13.97;;;6.17;;
3417;SDS011;1722;51.316;12.370;2022-10-31T03:40:20;12.13;;;5.90;;
3417;SDS011;1722;51.316;12.370;2022-10-31T03:42:51;14.40;;;6.73;;
3417;SDS011;1722;51.316;12.370;2022-10-31T03:45:23;13.47;;;6.33;;
3417;SDS011;1722;51.316;12.370;2022-10-31T03:47:54;14.43;;;6.70;;
3417;SDS011;1722;51.316;12.370;2022-10-31T03:50:23;14.17;;;6.10;;
3417;SDS011;1722;51.316;12.370;2022-10-31T03:52:54;12.53;;;6.50;;
3417;SDS011;1722;51.316;12.370;2022-10-31T03:55:26;11.20;;;6.20;;
3417;SDS011;1722;51.316;12.370;2022-10-31T03:57:58;14.30;;;6.40;;
3417;SDS011;1722;51.316;12.370;2022-10-31T04:00:28;13.50;;;6.57;;
3417;SDS011;1722;51.316;12.370;2022-10-31T04:03:01;14.73;;;6.97;;
3417;SDS011;1722;51.316;12.370;2022-10-31T04:05:32;10.30;;;6.53;;
3417;SDS011;1722;51.316;12.370;2022-10-31T04:08:01;14.43;;;6.40;;
3417;SDS011;1722;51.316;12.370;2022-10-31T04:10:34;8.77;;;5.97;;
3417;SDS011;1722;51.316;12.370;2022-10-31T04:13:04;18.87;;;7.10;;
3417;SDS011;1722;51.316;12.370;2022-10-31T04:15:34;14.03;;;6.73;;
3417;SDS011;1722;51.316;12.370;2022-10-31T04:18:05;14.73;;;7.50;;
3417;SDS011;1722;51.316;12.370;2022-10-31T04:20:33;20.63;;;7.07;;
3417;SDS011;1722;51.316;12.370;2022-10-31T04:23:03;14.63;;;6.00;;
3417;SDS011;1722;51.316;12.370;2022-10-31T04:25:31;13.87;;;6.83;;
3417;SDS011;1722;51.316;12.370;2022-10-31T04:27:58;15.60;;;6.93;;
3417;SDS011;1722;51.316;12.370;2022-10-31T04:30:26;15.90;;;7.73;;
3417;SDS011;1722;51.316;12.370;2022-10-31T04:32:53;12.83;;;6.07;;
3417;SDS011;1722;51.316;12.370;2022-10-31T04:35:22;12.30;;;6.50;;
3417;SDS011;1722;51.316;12.370;2022-10-31T04:37:49;12.00;;;6.40;;
3417;SDS011;1722;51.316;12.370;2022-10-31T04:40:17;20.83;;;6.83;;
3417;SDS011;1722;51.316;12.370;2022-10-31T04:42:44;12.20;;;6.37;;
3417;SDS011;1722;51.316;12.370;2022-10-31T04:45:12;11.07;;;6.00;;
3417;SDS011;1722;51.316;12.370;2022-10-31T04:47:39;16.07;;;6.90;;
3417;SDS011;1722;51.316;12.370;2022-10-31T04:50:07;9.80;;;5.70;;
3417;SDS011;1722;51.316;12.370;2022-10-31T04:52:39;13.87;;;7.50;;
3417;SDS011;1722;51.316;12.370;2022-10-31T04:55:07;12.70;;;6.57;;
3417;SDS011;1722;51.316;12.370;2022-10-31T04:57:39;10.87;;;5.60;;
3417;SDS011;1722;51.316;12.370;2022-10-31T05:00:08;9.70;;;5.57;;
3417;SDS011;1722;51.316;12.370;2022-10-31T05:02:42;13.63;;;6.87;;
3417;SDS011;1722;51.316;12.370;2022-10-31T05:05:10;13.90;;;6.80;;
3417;SDS011;1722;51.316;12.370;2022-10-31T05:07:39;17.40;;;7.00;;
3417;SDS011;1722;51.316;12.370;2022-10-31T05:10:08;8.67;;;5.97;;
3417;SDS011;1722;51.316;12.370;2022-10-31T05:12:37;11.93;;;5.80;;
3417;SDS011;1722;51.316;12.370;2022-10-31T05:15:11;15.97;;;6.77;;
3417;SDS011;1722;51.316;12.370;2022-10-31T05:17:39;11.47;;;6.50;;
3417;SDS011;1722;51.316;12.370;2022-10-31T05:20:07;9.80;;;6.67;;
3417;SDS011;1722;51.316;12.370;2022-10-31T05:22:35;15.70;;;6.57;;
3417;SDS011;1722;51.316;12.370;2022-10-31T05:25:04;16.40;;;6.80;;
3417;SDS011;1722;51.316;12.370;2022-10-31T05:27:31;14.37;;;6.47;;
3417;SDS011;1722;51.316;12.370;2022-10-31T05:29:59;10.20;;;6.63;;
3417;SDS011;1722;51.316;12.370;2022-10-31T05:32:26;14.97;;;7.10;;
3417;SDS011;1722;51.316;12.370;2022-10-31T05:34:55;16.40;;;7.60;;
3417;SDS011;1722;51.316;12.370;2022-10-31T05:37:22;23.17;;;7.10;;
3417;SDS011;1722;51.316;12.370;2022-10-31T05:39:50;12.77;;;6.30;;
3417;SDS011;1722;51.316;12.370;2022-10-31T05:42:18;13.17;;;7.30;;
3417;SDS011;1722;51.316;12.370;2022-10-31T05:44:46;14.93;;;7.10;;
3417;SDS011;1722;51.316;12.370;2022-10-31T05:47:13;16.03;;;6.67;;
3417;SDS011;1722;51.316;12.370;2022-10-31T05:49:41;12.47;;;7.20;;
3417;SDS011;1722;51.316;12.370;2022-10-31T05:52:08;14.60;;;6.87;;
3417;SDS011;1722;51.316;12.370;2022-10-31T05:54:35;13.87;;;7.00;;
3417;SDS011;1722;51.316;12.370;2022-10-31T05:57:03;22.77;;;7.47;;
3417;SDS011;1722;51.316;12.370;2022-10-31T05:59:32;15.53;;;7.40;;
3417;SDS011;1722;51.316;12.370;2022-10-31T06:01:59;16.73;;;6.47;;
3417;SDS011;1722;51.316;12.370;2022-10-31T06:04:26;11.40;;;6.67;;
3417;SDS011;1722;51.316;12.370;2022-10-31T06:06:55;12.53;;;6.53;;
3417;SDS011;1722;51.316;12.370;2022-10-31T06:09:23;17.93;;;7.20;;
3417;SDS011;1722;51.316;12.370;2022-10-31T06:11:50;16.83;;;6.80;;
3417;SDS011;1722;51.316;12.370;2022-10-31T06:14:18;16.77;;;6.90;;
3417;SDS011;1722;51.316;12.370;2022-10-31T06:16:46;13.47;;;7.30;;
3417;SDS011;1722;51.316;12.370;2022-10-31T06:19:14;17.43;;;7.37;;
3417;SDS011;1722;51.316;12.370;2022-10-31T06:21:41;13.70;;;6.77;;
3417;SDS011;1722;51.316;12.370;2022-10-31T06:24:09;15.50;;;6.97;;
3417;SDS011;1722;51.316;12.370;2022-10-31T06:26:36;13.67;;;7.07;;
3417;SDS011;1722;51.316;12.370;2022-10-31T06:29:03;15.43;;;7.87;;
3417;SDS011;1722;51.316;12.370;2022-10-31T06:31:31;15.17;;;6.47;;
3417;SDS011;1722;51.316;12.370;2022-10-31T06:34:00;11.27;;;7.17;;
3417;SDS011;1722;51.316;12.370;2022-10-31T06:36:27;16.73;;;7.00;;
3417;SDS011;1722;51.316;12.370;2022-10-31T06:38:54;12.07;;;6.90;;
3417;SDS011;1722;51.316;12.370;2022-10-31T06:41:22;11.97;;;5.90;;
3417;SDS011;1722;51.316;12.370;2022-10-31T06:43:50;11.20;;;7.00;;
3417;SDS011;1722;51.316;12.370;2022-10-31T06:46:17;11.90;;;6.43;;
3417;SDS011;1722;51.316;12.370;2022-10-31T06:48:44;19.00;;;7.70;;
3417;SDS011;1722;51.316;12.370;2022-10-31T06:51:13;12.90;;;6.10;;
3417;SDS011;1722;51.316;12.370;2022-10-31T06:53:41;14.70;;;6.80;;
3417;SDS011;1722;51.316;12.370;2022-10-31T06:56:08;12.53;;;6.80;;
3417;SDS011;1722;51.316;12.370;2022-10-31T06:58:35;20.10;;;7.10;;
3417;SDS011;1722;51.316;12.370;2022-10-31T07:01:03;11.93;;;7.40;;
3417;SDS011;1722;51.316;12.370;2022-10-31T07:03:30;13.67;;;7.30;;
3417;SDS011;1722;51.316;12.370;2022-10-31T07:05:58;14.77;;;6.80;;
3417;SDS011;1722;51.316;12.370;2022-10-31T07:08:26;15.10;;;7.20;;
3417;SDS011;1722;51.316;12.370;2022-10-31T07:10:55;13.20;;;6.97;;
3417;SDS011;1722;51.316;12.370;2022-10-31T07:13:23;13.97;;;6.97;;
3417;SDS011;1722;51.316;12.370;2022-10-31T07:15:51;19.80;;;7.27;;
3417;SDS011;1722;51.316;12.370;2022-10-31T07:18:20;11.47;;;6.20;;
3417;SDS011;1722;51.316;12.370;2022-10-31T07:20:48;19.97;;;6.43;;
3417;SDS011;1722;51.316;12.370;2022-10-31T07:23:15;15.03;;;7.37;;
3417;SDS011;1722;51.316;12.370;2022-10-31T07:25:44;17.33;;;7.63;;
3417;SDS011;1722;51.316;12.370;2022-10-31T07:28:11;14.63;;;7.03;;
3417;SDS011;1722;51.316;12.370;2022-10-31T07:30:39;21.60;;;7.30;;
3417;SDS011;1722;51.316;12.370;2022-10-31T07:33:06;11.43;;;7.17;;
3417;SDS011;1722;51.316;12.370;2022-10-31T07:35:35;10.80;;;7.77;;
3417;SDS011;1722;51.316;12.370;2022-10-31T07:38:08;16.63;;;7.50;;
3417;SDS011;1722;51.316;12.370;2022-10-31T07:40:37;15.50;;;8.10;;
3417;SDS011;1722;51.316;12.370;2022-10-31T07:43:06;17.80;;;7.40;;
3417;SDS011;1722;51.316;12.370;2022-10-31T07:45:34;11.73;;;6.90;;
3417;SDS011;1722;51.316;12.370;2022-10-31T07:48:01;16.60;;;8.10;;
3417;SDS011;1722;51.316;12.370;2022-10-31T07:50:29;19.50;;;7.00;;
3417;SDS011;1722;51.316;12.370;2022-10-31T07:52:59;15.23;;;6.87;;
3417;SDS011;1722;51.316;12.370;2022-10-31T07:55:27;12.60;;;6.97;;
3417;SDS011;1722;51.316;12.370;2022-10-31T07:57:56;17.53;;;7.93;;
3417;SDS011;1722;51.316;12.370;2022-10-31T08:00:26;22.57;;;8.23;;
3417;SDS011;1722;51.316;12.370;2022-10-31T08:02:57;16.43;;;7.00;;
3417;SDS011;1722;51.316;12.370;2022-10-31T08:05:25;13.57;;;6.80;;
3417;SDS011;1722;51.316;12.370;2022-10-31T08:07:53;18.17;;;6.53;;
3417;SDS011;1722;51.316;12.370;2022-10-31T08:10:21;11.90;;;7.10;;
3417;SDS011;1722;51.316;12.370;2022-10-31T08:12:54;16.70;;;7.77;;
3417;SDS011;1722;51.316;12.370;2022-10-31T08:15:23;8.93;;;5.87;;
3417;SDS011;1722;51.316;12.370;2022-10-31T08:17:52;18.17;;;6.80;;
3417;SDS011;1722;51.316;12.370;2022-10-31T08:20:20;12.83;;;7.10;;
3417;SDS011;1722;51.316;12.370;2022-10-31T08:22:54;11.33;;;6.53;;
3417;SDS011;1722;51.316;12.370;2022-10-31T08:25:23;9.40;;;6.33;;
3417;SDS011;1722;51.316;12.370;2022-10-31T08:27:51;10.10;;;6.03;;
3417;SDS011;1722;51.316;12.370;2022-10-31T08:30:21;15.30;;;7.53;;
3417;SDS011;1722;51.316;12.370;2022-10-31T08:32:57;18.80;;;7.83;;
3417;SDS011;1722;51.316;12.370;2022-10-31T08:35:26;18.97;;;8.20;;
3417;SDS011;1722;51.316;12.370;2022-10-31T08:37:53;12.37;;;6.47;;
3417;SDS011;1722;51.316;12.370;2022-10-31T08:40:21;17.40;;;7.87;;
3417;SDS011;1722;51.316;12.370;2022-10-31T08:42:55;17.53;;;8.27;;
3417;SDS011;1722;51.316;12.370;2022-10-31T08:45:23;17.13;;;7.87;;
3417;SDS011;1722;51.316;12.370;2022-10-31T08:47:51;13.60;;;7.27;;
3417;SDS011;1722;51.316;12.370;2022-10-31T08:50:20;21.00;;;9.40;;
3417;SDS011;1722;51.316;12.370;2022-10-31T08:52:47;16.80;;;8.30;;
3417;SDS011;1722;51.316;12.370;2022-10-31T08:55:15;17.53;;;8.80;;
3417;SDS011;1722;51.316;12.370;2022-10-31T08:57:42;19.30;;;9.00;;
3417;SDS011;1722;51.316;12.370;2022-10-31T09:00:10;21.17;;;8.73;;
3417;SDS011;1722;51.316;12.370;2022-10-31T09:02:38;23.23;;;9.37;;
3417;SDS011;1722;51.316;12.370;2022-10-31T09:05:05;20.53;;;10.30;;
3417;SDS011;1722;51.316;12.370;2022-10-31T09:07:35;24.73;;;10.23;;
3417;SDS011;1722;51.316;12.370;2022-10-31T09:10:02;15.30;;;9.40;;
3417;SDS011;1722;51.316;12.370;2022-10-31T09:12:30;23.03;;;9.97;;
3417;SDS011;1722;51.316;12.370;2022-10-31T09:14:57;20.60;;;10.13;;
3417;SDS011;1722;51.316;12.370;2022-10-31T09:17:26;37.77;;;11.60;;
3417;SDS011;1722;51.316;12.370;2022-10-31T09:19:54;22.93;;;12.90;;
3417;SDS011;1722;51.316;12.370;2022-10-31T09:22:22;31.80;;;16.00;;
3417;SDS011;1722;51.316;12.370;2022-10-31T09:24:51;35.27;;;14.53;;
3417;SDS011;1722;51.316;12.370;2022-10-31T09:27:19;34.53;;;19.63;;
3417;SDS011;1722;51.316;12.370;2022-10-31T09:29:46;36.23;;;19.53;;
3417;SDS011;1722;51.316;12.370;2022-10-31T09:32:13;40.30;;;19.37;;
3417;SDS011;1722;51.316;12.370;2022-10-31T09:34:41;41.30;;;20.13;;
3417;SDS011;1722;51.316;12.370;2022-10-31T09:37:08;59.93;;;27.33;;
3417;SDS011;1722;51.316;12.370;2022-10-31T09:39:36;51.27;;;25.40;;
3417;SDS011;1722;51.316;12.370;2022-10-31T09:45:06;40.87;;;21.70;;
3417;SDS011;1722;51.316;12.370;2022-10-31T09:47:41;47.77;;;23.50;;
3417;SDS011;1722;51.316;12.370;2022-10-31T09:50:19;49.50;;;23.20;;
3417;SDS011;1722;51.316;12.370;2022-10-31T09:52:51;49.07;;;22.67;;
3417;SDS011;1722;51.316;12.370;2022-10-31T09:55:26;45.73;;;22.93;;
3417;SDS011;1722;51.316;12.370;2022-10-31T09:58:00;52.07;;;25.23;;
3417;SDS011;1722;51.316;12.370;2022-10-31T10:00:29;51.10;;;24.90;;
3417;SDS011;1722;51.316;12.370;2022-10-31T10:03:00;45.50;;;22.43;;
3417;SDS011;1722;51.316;12.370;2022-10-31T10:05:36;51.50;;;22.93;;
3417;SDS011;1722;51.316;12.370;2022-10-31T10:08:09;50.27;;;25.13;;
3417;SDS011;1722;51.316;12.370;2022-10-31T10:10:44;53.60;;;25.30;;
3417;SDS011;1722;51.316;12.370;2022-10-31T10:13:30;51.30;;;24.40;;
3417;SDS011;1722;51.316;12.370;2022-10-31T10:16:10;47.00;;;23.87;;
3417;SDS011;1722;51.316;12.370;2022-10-31T10:18:47;42.17;;;22.00;;
3417;SDS011;1722;51.316;12.370;2022-10-31T10:21:30;47.60;;;22.57;;
3417;SDS011;1722;51.316;12.370;2022-10-31T10:24:11;48.93;;;22.13;;
3417;SDS011;1722;51.316;12.370;2022-10-31T10:26:50;47.33;;;22.77;;
3417;SDS011;1722;51.316;12.370;2022-10-31T10:29:29;41.23;;;22.37;;
3417;SDS011;1722;51.316;12.370;2022-10-31T10:32:01;47.73;;;23.07;;
3417;SDS011;1722;51.316;12.370;2022-10-31T10:34:33;60.97;;;23.60;;
3417;SDS011;1722;51.316;12.370;2022-10-31T10:37:08;56.67;;;24.60;;
3417;SDS011;1722;51.316;12.370;2022-10-31T10:39:45;51.97;;;24.67;;
3417;SDS011;1722;51.316;12.370;2022-10-31T10:42:15;44.37;;;23.07;;
3417;SDS011;1722;51.316;12.370;2022-10-31T10:45:06;43.10;;;23.67;;
3417;SDS011;1722;51.316;12.370;2022-10-31T10:48:00;49.40;;;22.73;;
3417;SDS011;1722;51.316;12.370;2022-10-31T10:50:39;40.07;;;20.90;;
3417;SDS011;1722;51.316;12.370;2022-10-31T10:53:15;41.20;;;22.80;;
3417;SDS011;1722;51.316;12.370;2022-10-31T10:55:59;47.33;;;23.20;;
3417;SDS011;1722;51.316;12.370;2022-10-31T10:58:37;38.57;;;22.57;;
3417;SDS011;1722;51.316;12.370;2022-10-31T11:01:11;53.50;;;27.97;;
3417;SDS011;1722;51.316;12.370;2022-10-31T11:03:40;55.87;;;27.83;;
3417;SDS011;1722;51.316;12.370;2022-10-31T11:06:16;54.00;;;27.80;;
3417;SDS011;1722;51.316;12.370;2022-10-31T11:08:48;48.97;;;25.40;;
3417;SDS011;1722;51.316;12.370;2022-10-31T11:11:24;41.37;;;21.90;;
3417;SDS011;1722;51.316;12.370;2022-10-31T11:13:55;69.87;;;27.83;;
3417;SDS011;1722;51.316;12.370;2022-10-31T11:16:31;48.00;;;26.10;;
3417;SDS011;1722;51.316;12.370;2022-10-31T11:19:05;41.50;;;24.07;;
3417;SDS011;1722;51.316;12.370;2022-10-31T11:21:35;41.67;;;22.80;;
3417;SDS011;1722;51.316;12.370;2022-10-31T11:24:03;40.87;;;23.10;;
3417;SDS011;1722;51.316;12.370;2022-10-31T11:26:37;45.30;;;24.60;;
3417;SDS011;1722;51.316;12.370;2022-10-31T11:29:10;52.20;;;26.50;;
3417;SDS011;1722;51.316;12.370;2022-10-31T11:31:42;49.40;;;26.33;;
3417;SDS011;1722;51.316;12.370;2022-10-31T11:34:15;49.53;;;25.87;;
3417;SDS011;1722;51.316;12.370;2022-10-31T11:36:52;48.47;;;24.20;;
3417;SDS011;1722;51.316;12.370;2022-10-31T11:39:20;53.57;;;25.77;;
3417;SDS011;1722;51.316;12.370;2022-10-31T11:41:50;41.67;;;23.77;;
3417;SDS011;1722;51.316;12.370;2022-10-31T11:44:20;45.90;;;24.07;;
3417;SDS011;1722;51.316;12.370;2022-10-31T11:46:52;59.97;;;25.93;;
3417;SDS011;1722;51.316;12.370;2022-10-31T11:49:24;45.30;;;25.33;;
3417;SDS011;1722;51.316;12.370;2022-10-31T11:51:57;46.13;;;24.03;;
3417;SDS011;1722;51.316;12.370;2022-10-31T11:54:29;45.80;;;24.83;;
3417;SDS011;1722;51.316;12.370;2022-10-31T11:56:59;41.27;;;22.77;;
3417;SDS011;1722;51.316;12.370;2022-10-31T11:59:29;44.30;;;21.13;;
3417;SDS011;1722;51.316;12.370;2022-10-31T12:01:59;46.87;;;23.53;;
3417;SDS011;1722;51.316;12.370;2022-10-31T12:04:32;44.23;;;23.83;;
3417;SDS011;1722;51.316;12.370;2022-10-31T12:07:06;50.87;;;25.73;;
3417;SDS011;1722;51.316;12.370;2022-10-31T12:09:35;47.77;;;24.87;;
3417;SDS011;1722;51.316;12.370;2022-10-31T12:12:07;42.17;;;22.17;;
3417;SDS011;1722;51.316;12.370;2022-10-31T12:14:46;47.20;;;22.50;;
3417;SDS011;1722;51.316;12.370;2022-10-31T12:17:26;43.20;;;21.67;;
3417;SDS011;1722;51.316;12.370;2022-10-31T12:20:01;50.70;;;22.43;;
3417;SDS011;1722;51.316;12.370;2022-10-31T12:22:37;54.37;;;25.40;;
3417;SDS011;1722;51.316;12.370;2022-10-31T12:25:15;51.57;;;24.43;;
3417;SDS011;1722;51.316;12.370;2022-10-31T12:27:58;53.00;;;24.13;;
3417;SDS011;1722;51.316;12.370;2022-10-31T12:30:33;47.07;;;24.80;;
3417;SDS011;1722;51.316;12.370;2022-10-31T12:33:23;51.33;;;21.30;;
3417;SDS011;1722;51.316;12.370;2022-10-31T12:36:15;44.03;;;22.53;;
3417;SDS011;1722;51.316;12.370;2022-10-31T12:38:56;53.97;;;25.47;;
3417;SDS011;1722;51.316;12.370;2022-10-31T12:41:42;55.63;;;24.30;;
3417;SDS011;1722;51.316;12.370;2022-10-31T12:44:15;46.37;;;23.60;;
3417;SDS011;1722;51.316;12.370;2022-10-31T12:47:05;35.63;;;19.77;;
3417;SDS011;1722;51.316;12.370;2022-10-31T12:49:48;49.67;;;22.70;;
3417;SDS011;1722;51.316;12.370;2022-10-31T12:52:39;49.00;;;22.90;;
3417;SDS011;1722;51.316;12.370;2022-10-31T12:55:19;40.00;;;20.27;;
3417;SDS011;1722;51.316;12.370;2022-10-31T12:58:14;46.63;;;22.53;;
3417;SDS011;1722;51.316;12.370;2022-10-31T13:00:48;41.27;;;20.60;;
3417;SDS011;1722;51.316;12.370;2022-10-31T13:03:27;43.80;;;20.80;;
3417;SDS011;1722;51.316;12.370;2022-10-31T13:06:05;40.10;;;20.20;;
3417;SDS011;1722;51.316;12.370;2022-10-31T13:08:38;35.83;;;18.27;;
3417;SDS011;1722;51.316;12.370;2022-10-31T13:11:12;46.77;;;20.93;;
3417;SDS011;1722;51.316;12.370;2022-10-31T13:13:54;42.73;;;22.30;;
3417;SDS011;1722;51.316;12.370;2022-10-31T13:16:28;46.77;;;23.37;;
3417;SDS011;1722;51.316;12.370;2022-10-31T13:19:00;40.87;;;21.20;;
3417;SDS011;1722;51.316;12.370;2022-10-31T13:21:36;37.90;;;21.67;;
3417;SDS011;1722;51.316;12.370;2022-10-31T13:24:08;35.33;;;19.43;;
3417;SDS011;1722;51.316;12.370;2022-10-31T13:26:41;45.87;;;23.40;;
3417;SDS011;1722;51.316;12.370;2022-10-31T13:29:14;37.60;;;23.53;;
3417;SDS011;1722;51.316;12.370;2022-10-31T13:31:46;41.20;;;22.40;;
3417;SDS011;1722;51.316;12.370;2022-10-31T13:34:18;40.70;;;22.47;;
3417;SDS011;1722;51.316;12.370;2022-10-31T13:36:53;49.37;;;23.73;;
3417;SDS011;1722;51.316;12.370;2022-10-31T13:39:30;43.27;;;23.20;;
3417;SDS011;1722;51.316;12.370;2022-10-31T13:42:12;47.77;;;22.20;;
3417;SDS011;1722;51.316;12.370;2022-10-31T13:44:45;44.07;;;21.20;;
3417;SDS011;1722;51.316;12.370;2022-10-31T13:47:23;47.90;;;20.93;;
3417;SDS011;1722;51.316;12.370;2022-10-31T13:50:03;38.87;;;22.40;;
3417;SDS011;1722;51.316;12.370;2022-10-31T13:52:34;40.03;;;21.97;;
3417;SDS011;1722;51.316;12.370;2022-10-31T13:55:03;43.03;;;20.67;;
3417;SDS011;1722;51.316;12.370;2022-10-31T13:57:31;35.97;;;21.60;;
3417;SDS011;1722;51.316;12.370;2022-10-31T14:00:03;53.03;;;21.63;;
3417;SDS011;1722;51.316;12.370;2022-10-31T14:02:34;38.00;;;20.10;;
3417;SDS011;1722;51.316;12.370;2022-10-31T14:05:04;35.10;;;19.30;;
3417;SDS011;1722;51.316;12.370;2022-10-31T14:07:46;45.30;;;20.33;;
3417;SDS011;1722;51.316;12.370;2022-10-31T14:10:19;40.73;;;19.40;;
3417;SDS011;1722;51.316;12.370;2022-10-31T14:12:49;37.37;;;19.63;;
3417;SDS011;1722;51.316;12.370;2022-10-31T14:15:17;33.43;;;18.20;;
3417;SDS011;1722;51.316;12.370;2022-10-31T14:17:47;34.53;;;19.90;;
3417;SDS011;1722;51.316;12.370;2022-10-31T14:20:21;39.13;;;19.10;;
3417;SDS011;1722;51.316;12.370;2022-10-31T14:22:54;32.13;;;17.90;;
3417;SDS011;1722;51.316;12.370;2022-10-31T14:25:25;37.97;;;18.77;;
3417;SDS011;1722;51.316;12.370;2022-10-31T14:27:57;37.53;;;19.07;;
3417;SDS011;1722;51.316;12.370;2022-10-31T14:30:27;28.53;;;17.63;;
3417;SDS011;1722;51.316;12.370;2022-10-31T14:32:57;34.90;;;18.53;;
3417;SDS011;1722;51.316;12.370;2022-10-31T14:35:28;36.83;;;18.10;;
3417;SDS011;1722;51.316;12.370;2022-10-31T14:38:14;39.33;;;19.13;;
3417;SDS011;1722;51.316;12.370;2022-10-31T14:41:08;40.07;;;20.17;;
3417;SDS011;1722;51.316;12.370;2022-10-31T14:46:46;44.60;;;21.67;;
3417;SDS011;1722;51.316;12.370;2022-10-31T14:49:24;39.10;;;20.17;;
3417;SDS011;1722;51.316;12.370;2022-10-31T14:51:59;37.63;;;19.03;;
3417;SDS011;1722;51.316;12.370;2022-10-31T14:54:30;45.03;;;19.60;;
3417;SDS011;1722;51.316;12.370;2022-10-31T14:57:01;40.23;;;21.70;;
3417;SDS011;1722;51.316;12.370;2022-10-31T14:59:33;38.43;;;22.03;;
3417;SDS011;1722;51.316;12.370;2022-10-31T15:02:08;40.80;;;20.63;;
3417;SDS011;1722;51.316;12.370;2022-10-31T15:04:41;42.47;;;22.10;;
3417;SDS011;1722;51.316;12.370;2022-10-31T15:07:12;39.27;;;21.33;;
3417;SDS011;1722;51.316;12.370;2022-10-31T15:09:44;45.30;;;21.67;;
3417;SDS011;1722;51.316;12.370;2022-10-31T15:12:23;43.13;;;21.47;;
3417;SDS011;1722;51.316;12.370;2022-10-31T15:14:52;47.03;;;23.87;;